Time;durP1;ratioP1;P1;durP2;ratioP2;P2;SDS_P1;SDS_P2;PMS_P1;PMS_P2;Temp;Humidity;BMP_temperature;BMP_pressure;BME280_temperature;BME280_humidity;BME280_pressure;Samples;Min_cycle;Max_cycle;Signal;HPM_P1;HPM_P2
2021/10/01 00:00:47;;;;;;;6.45;2.80;;;;;;;8.65;64.00;100606.41;10302700;28;20058;-68
2021/10/01 00:05:49;;;;;;;7.43;2.10;;;;;;;8.63;64.06;100607.38;10309882;28;20484;-68
2021/10/01 00:10:51;;;;;;;6.05;2.40;;;;;;;8.32;63.93;100609.56;10309235;28;20666;-68
2021/10/01 00:15:53;;;;;;;5.63;2.60;;;;;;;8.18;64.42;100611.84;10303046;28;20072;-69
2021/10/01 00:20:55;;;;;;;5.65;2.10;;;;;;;8.15;64.56;100611.97;10307016;28;20068;-69
2021/10/01 00:25:57;;;;;;;5.63;2.28;;;;;;;8.19;64.56;100605.72;10306824;28;20050;-69
2021/10/01 00:30:59;;;;;;;8.15;2.10;;;;;;;8.16;64.58;100604.06;10304439;28;20057;-68
2021/10/01 00:36:01;;;;;;;6.45;2.03;;;;;;;8.14;64.38;100602.47;10308819;28;20058;-69
2021/10/01 00:41:02;;;;;;;8.48;2.28;;;;;;;8.11;63.89;100599.97;10306394;28;20221;-68
2021/10/01 00:46:04;;;;;;;7.57;2.25;;;;;;;7.88;64.26;100591.25;10307351;28;20080;-69
2021/10/01 00:51:07;;;;;;;5.55;2.08;;;;;;;7.84;64.53;100584.47;10307949;28;20050;-68
2021/10/01 00:56:09;;;;;;;5.50;2.08;;;;;;;7.88;64.48;100582.59;10304158;28;20133;-68
2021/10/01 01:01:11;;;;;;;5.75;2.10;;;;;;;7.91;64.55;100572.06;10306508;28;20565;-68
2021/10/01 01:06:39;;;;;;;7.07;2.20;;;;;;;7.87;64.69;100570.47;10307253;28;20533;-68
2021/10/01 01:11:56;;;;;;;5.20;2.17;;;;;;;7.91;64.20;100564.25;10303968;28;20411;-68
2021/10/01 01:17:00;;;;;;;5.70;2.30;;;;;;;7.59;64.40;100562.84;10304825;28;20064;-68
2021/10/01 01:22:11;;;;;;;7.43;2.45;;;;;;;7.44;64.74;100559.97;10306655;28;20519;-68
2021/10/01 01:27:26;;;;;;;4.32;2.10;;;;;;;7.37;65.10;100551.53;10302687;28;20546;-68
2021/10/01 01:32:32;;;;;;;6.72;2.08;;;;;;;7.40;65.18;100542.78;10306271;28;20077;-68
2021/10/01 01:37:42;;;;;;;5.55;2.38;;;;;;;7.44;64.90;100531.34;10306187;28;20046;-68
2021/10/01 01:42:46;;;;;;;5.00;2.20;;;;;;;7.44;64.61;100536.56;10302449;28;20092;-68
2021/10/01 01:47:48;;;;;;;4.88;2.25;;;;;;;7.45;64.55;100533.91;10317194;28;20065;-68
2021/10/01 01:52:54;;;;;;;8.15;2.50;;;;;;;7.40;64.59;100530.63;10305465;28;20046;-68
2021/10/01 01:57:58;;;;;;;8.82;2.58;;;;;;;7.28;64.78;100520.69;10295641;28;20053;-68
2021/10/01 02:03:03;;;;;;;4.70;2.20;;;;;;;7.22;64.81;100520.06;10301042;28;20487;-68
2021/10/01 02:08:06;;;;;;;5.63;2.20;;;;;;;7.09;65.19;100511.84;10311047;28;20062;-68
2021/10/01 02:13:09;;;;;;;4.45;2.35;;;;;;;7.11;65.18;100517.84;10307990;28;20074;-68
2021/10/01 02:18:11;;;;;;;6.03;2.30;;;;;;;7.20;64.87;100505.34;10325142;28;20038;-68
2021/10/01 02:23:13;;;;;;;5.13;2.10;;;;;;;7.13;64.45;100497.81;10311368;28;20495;-68
2021/10/01 02:28:39;;;;;;;4.78;2.10;;;;;;;6.96;65.04;100493.22;10308740;28;20065;-68
2021/10/01 02:33:44;;;;;;;5.30;2.03;;;;;;;7.02;64.67;100490.41;10310976;28;20089;-68
2021/10/01 02:38:45;;;;;;;5.50;2.30;;;;;;;7.03;64.89;100491.25;10311221;28;20058;-68
2021/10/01 02:43:47;;;;;;;7.15;2.75;;;;;;;7.02;64.44;100492.19;10307743;28;20417;-69
2021/10/01 02:48:49;;;;;;;79.60;4.07;;;;;;;6.85;64.34;100481.53;10309072;28;20048;-68
2021/10/01 02:54:07;;;;;;;9.30;2.35;;;;;;;6.51;65.14;100481.03;10309904;28;20050;-68
2021/10/01 02:59:11;;;;;;;4.95;2.10;;;;;;;6.47;65.24;100479.44;10309727;28;20061;-68
2021/10/01 03:04:14;;;;;;;7.07;2.25;;;;;;;6.54;65.03;100480.91;10306020;28;20054;-68
2021/10/01 03:09:16;;;;;;;4.65;1.98;;;;;;;6.59;64.82;100473.81;10304541;28;20080;-68
2021/10/01 03:14:19;;;;;;;3.78;1.80;;;;;;;6.56;64.95;100468.69;10298792;28;20042;-68
2021/10/01 03:19:22;;;;;;;4.85;2.05;;;;;;;6.60;64.71;100467.69;10316134;28;20481;-68
2021/10/01 03:24:24;;;;;;;13.52;2.20;;;;;;;6.61;64.70;100466.81;10316633;28;20060;-68
2021/10/01 03:29:26;;;;;;;4.55;1.92;;;;;;;6.59;64.79;100466.00;10313989;28;20050;-68
2021/10/01 03:34:28;;;;;;;14.93;2.97;;;;;;;6.57;64.56;100452.22;10314898;28;20053;-68
2021/10/01 03:39:29;;;;;;;101.20;7.45;;;;;;;6.51;64.65;100450.66;10315705;28;20073;-68
2021/10/01 03:44:31;;;;;;;76.10;6.65;;;;;;;6.49;64.71;100444.66;10311675;28;20050;-69
2021/10/01 03:49:33;;;;;;;248.38;9.95;;;;;;;6.27;64.91;100449.78;10316760;28;20050;-68
2021/10/01 03:54:36;;;;;;;198.40;6.63;;;;;;;6.16;65.25;100441.47;10315457;28;20218;-68
2021/10/01 03:59:38;;;;;;;34.53;2.97;;;;;;;6.22;65.56;100440.41;10315153;28;20053;-68
2021/10/01 04:04:40;;;;;;;53.97;3.10;;;;;;;6.28;65.30;100435.91;10313649;28;20154;-68
2021/10/01 04:09:41;;;;;;;343.38;9.25;;;;;;;6.12;65.16;100429.47;10314906;28;20050;-68
2021/10/01 04:14:43;;;;;;;218.32;5.97;;;;;;;5.97;65.58;100427.41;10311126;28;20050;-68
2021/10/01 04:19:45;;;;;;;26.45;2.75;;;;;;;5.98;65.74;100423.88;10314355;28;20054;-68
2021/10/01 04:24:46;;;;;;;61.17;3.55;;;;;;;6.04;65.51;100425.44;10316012;28;20078;-68
2021/10/01 04:29:48;;;;;;;149.73;4.68;;;;;;;6.11;65.65;100429.53;10307941;28;20048;-68
2021/10/01 04:34:59;;;;;;;210.95;5.90;;;;;;;6.17;65.62;100417.19;10308661;28;20442;-68
2021/10/01 04:40:02;;;;;;;217.25;6.07;;;;;;;6.11;65.72;100412.19;10308443;28;20080;-68
2021/10/01 04:45:05;;;;;;;242.52;6.40;;;;;;;6.13;65.39;100419.94;10305915;28;20217;-68
2021/10/01 04:50:07;;;;;;;547.47;13.25;;;;;;;6.00;65.23;100419.50;10309767;28;20053;-68
2021/10/01 04:55:08;;;;;;;401.45;9.77;;;;;;;5.73;66.00;100419.56;10305213;28;20060;-68
2021/10/01 05:00:11;;;;;;;102.80;4.30;;;;;;;5.88;65.86;100417.31;10307011;28;20495;-69
2021/10/01 05:05:13;;;;;;;188.15;5.80;;;;;;;5.95;65.75;100411.03;10305387;28;20499;-68
2021/10/01 05:10:14;;;;;;;121.03;4.72;;;;;;;5.87;65.76;100413.03;10307483;28;20065;-68
2021/10/01 05:15:18;;;;;;;342.30;8.27;;;;;;;5.86;66.00;100413.91;10302270;28;20046;-69
2021/10/01 05:20:19;;;;;;;366.52;10.05;;;;;;;5.88;66.15;100419.91;10306283;28;20060;-69
2021/10/01 05:25:21;;;;;;;442.58;11.18;;;;;;;5.79;66.01;100419.34;10305854;28;20737;-69
2021/10/01 05:30:23;;;;;;;248.85;7.63;;;;;;;5.87;66.35;100417.34;10302321;28;20491;-68
2021/10/01 05:35:25;;;;;;;68.07;3.50;;;;;;;5.94;65.81;100419.69;10307081;28;20050;-69
2021/10/01 05:40:27;;;;;;;22.50;2.25;;;;;;;6.04;65.51;100423.69;10301538;28;20050;-69
2021/10/01 05:45:28;;;;;;;54.80;3.63;;;;;;;6.14;65.35;100425.06;10296845;28;20054;-69
2021/10/01 05:50:32;;;;;;;42.55;3.58;;;;;;;6.22;65.11;100420.50;10301645;28;20137;-69
2021/10/01 05:55:34;;;;;;;120.97;4.47;;;;;;;6.42;65.11;100416.38;10306089;28;20050;-69
2021/10/01 06:00:36;;;;;;;165.85;5.55;;;;;;;6.53;64.81;100419.44;10303417;28;20046;-69
2021/10/01 06:05:38;;;;;;;42.72;3.03;;;;;;;6.59;64.78;100409.69;10304254;28;20054;-68
2021/10/01 06:10:39;;;;;;;40.75;2.40;;;;;;;6.76;64.49;100403.84;10302003;28;20077;-68
2021/10/01 06:15:42;;;;;;;100.82;3.92;;;;;;;6.83;64.02;100406.19;10300981;28;20312;-69
2021/10/01 06:20:43;;;;;;;359.30;9.35;;;;;;;6.89;63.71;100408.56;10303683;28;20056;-69
2021/10/01 06:25:46;;;;;;;391.92;11.52;;;;;;;6.91;63.99;100411.09;10303696;28;20378;-69
2021/10/01 06:30:48;;;;;;;52.70;4.07;;;;;;;7.14;63.70;100414.53;10300063;28;20046;-69
2021/10/01 06:35:49;;;;;;;47.30;14.90;;;;;;;7.38;63.21;100414.50;10302047;28;20287;-68
2021/10/01 06:40:51;;;;;;;12.43;2.10;;;;;;;7.74;62.85;100410.44;10303874;28;20050;-68
2021/10/01 06:45:56;;;;;;;60.75;3.20;;;;;;;8.04;62.19;100399.59;10304361;28;20050;-69
2021/10/01 06:51:21;;;;;;;9.68;3.10;;;;;;;8.10;61.79;100403.72;10303046;28;20213;-68
2021/10/01 08:21:56;;;;;;;7.93;2.93;;;;;;;12.45;53.67;100355.88;10310641;28;20077;-75
2021/10/01 08:26:58;;;;;;;8.00;2.78;;;;;;;12.67;53.23;100351.00;10309870;28;20302;-75
2021/10/01 08:32:01;;;;;;;10.15;2.85;;;;;;;12.57;53.26;100346.41;10309152;28;20494;-75
2021/10/01 08:37:03;;;;;;;8.32;2.67;;;;;;;12.76;52.32;100345.19;10309795;28;20050;-75
2021/10/01 08:42:05;;;;;;;6.68;2.80;;;;;;;13.04;52.52;100340.84;10309080;28;20081;-75
2021/10/01 08:47:10;;;;;;;10.18;3.00;;;;;;;13.54;51.78;100323.53;10309755;28;20388;-75
2021/10/01 08:52:11;;;;;;;10.35;2.90;;;;;;;13.87;51.10;100322.22;10309577;28;20050;-75
2021/10/01 08:57:13;;;;;;;6.22;2.83;;;;;;;14.42;50.08;100309.63;10308863;28;20065;-75
2021/10/01 09:02:15;;;;;;;7.90;2.55;;;;;;;14.81;49.26;100308.66;10309499;28;20094;-75
2021/10/01 09:07:19;;;;;;;9.70;2.58;;;;;;;14.97;48.64;100298.69;10308714;28;20038;-75
2021/10/01 09:12:22;;;;;;;7.40;2.50;;;;;;;15.35;48.64;100294.97;10323606;28;20056;-77
2021/10/01 09:17:27;;;;;;;5.65;2.60;;;;;;;15.38;48.37;100283.34;10307008;28;20499;-76
2021/10/01 09:22:34;;;;;;;6.45;2.63;;;;;;;15.37;47.59;100271.13;10305860;28;20714;-75
2021/10/01 09:27:38;;;;;;;9.38;3.00;;;;;;;15.40;47.31;100258.56;10305431;28;20046;-75
2021/10/01 09:32:42;;;;;;;13.60;2.65;;;;;;;15.55;47.17;100251.31;10307276;28;20046;-75
2021/10/01 09:37:44;;;;;;;9.40;2.65;;;;;;;15.92;46.66;100238.81;10306812;28;20050;-75
2021/10/01 09:42:49;;;;;;;8.27;2.47;;;;;;;16.34;46.46;100232.88;10305966;28;20050;-75
2021/10/01 09:47:51;;;;;;;10.13;2.67;;;;;;;16.40;45.91;100221.81;10306342;28;20515;-75
2021/10/01 09:53:03;;;;;;;9.40;2.15;;;;;;;16.46;45.58;100225.78;10306157;28;20414;-75
2021/10/01 09:58:09;;;;;;;6.28;2.10;;;;;;;16.48;44.67;100211.53;10304706;28;20502;-76
2021/10/01 10:03:23;;;;;;;4.05;1.55;;;;;;;16.76;42.60;100203.06;10306235;28;20379;-75
2021/10/01 10:08:40;;;;;;;8.63;2.05;;;;;;;17.03;43.77;100197.34;10305493;28;20225;-76
2021/10/01 10:13:46;;;;;;;7.30;2.10;;;;;;;17.24;42.30;100187.59;10305342;28;20495;-74
2021/10/01 10:18:53;;;;;;;8.32;1.70;;;;;;;17.52;42.20;100179.09;10304282;28;20533;-75
2021/10/01 10:23:56;;;;;;;4.13;1.20;;;;;;;17.61;41.41;100170.38;10303999;28;20056;-75
2021/10/01 10:29:04;;;;;;;4.47;1.30;;;;;;;17.69;38.02;100172.34;10304382;28;20304;-75
2021/10/01 10:34:29;;;;;;;3.85;1.25;;;;;;;17.71;37.83;100160.69;10304424;28;20050;-74
2021/10/01 10:39:38;;;;;;;4.13;1.30;;;;;;;17.77;36.10;100151.41;10318112;28;20065;-76
2021/10/01 10:44:46;;;;;;;4.15;1.30;;;;;;;17.65;37.67;100141.84;10293376;28;20046;-75
2021/10/01 10:49:48;;;;;;;4.75;1.30;;;;;;;17.65;37.89;100139.19;10302899;28;20048;-74
2021/10/01 10:54:52;;;;;;;3.90;1.20;;;;;;;17.75;38.19;100129.53;10299329;28;20060;-75
2021/10/01 10:59:58;;;;;;;2.95;1.10;;;;;;;17.71;37.10;100122.78;10301159;28;20050;-74
2021/10/01 11:05:26;;;;;;;2.58;1.00;;;;;;;17.56;36.20;100109.09;10302254;28;20054;-75
2021/10/01 11:10:33;;;;;;;3.83;1.05;;;;;;;17.69;35.25;100104.41;10297259;28;20050;-75
2021/10/01 11:15:35;;;;;;;2.45;1.00;;;;;;;17.73;36.68;100100.53;10300772;28;20415;-75
2021/10/01 11:20:37;;;;;;;4.55;1.30;;;;;;;17.75;36.18;100087.22;10294119;28;20424;-76
2021/10/01 11:25:43;;;;;;;3.45;1.10;;;;;;;17.77;33.87;100075.50;10301181;28;20057;-75
2021/10/01 11:30:53;;;;;;;2.70;1.10;;;;;;;17.84;34.80;100063.41;10299788;28;20480;-76
2021/10/01 11:35:55;;;;;;;;;;;;;;;17.63;34.59;100054.69;10300115;28;20054;-76
2021/10/01 11:41:09;;;;;;;3.08;1.10;;;;;;;18.01;33.50;100040.78;10308657;28;19928;-77
2021/10/01 11:46:12;;;;;;;2.92;1.17;;;;;;;18.12;34.67;100042.44;10306990;28;20050;-70
2021/10/01 11:51:14;;;;;;;3.00;1.15;;;;;;;18.23;33.57;100023.81;10309423;28;20061;-70
2021/10/01 11:56:16;;;;;;;5.65;1.50;;;;;;;18.27;33.53;100022.56;10310187;28;20046;-70
2021/10/01 12:01:18;;;;;;;4.85;1.20;;;;;;;18.44;34.06;100019.25;10307064;28;20061;-70
2021/10/01 12:06:38;;;;;;;4.10;1.17;;;;;;;18.38;32.58;100007.38;10306803;28;20058;-70
2021/10/01 12:11:41;;;;;;;3.17;1.02;;;;;;;18.60;33.01;99998.34;10307132;28;20058;-71
2021/10/01 12:17:06;;;;;;;2.50;0.88;;;;;;;18.48;31.43;99994.16;10308228;28;20047;-70
2021/10/01 12:22:17;;;;;;;5.03;1.13;;;;;;;18.73;31.78;99982.16;10306964;28;20109;-70
2021/10/01 12:27:33;;;;;;;2.53;1.10;;;;;;;18.65;28.97;99980.19;10321495;28;20113;-71
2021/10/01 12:32:35;;;;;;;3.63;1.08;;;;;;;18.81;30.98;99977.78;10309697;28;20054;-71
2021/10/01 12:37:40;;;;;;;2.05;1.05;;;;;;;18.99;30.20;99980.56;10308364;28;20400;-70
2021/10/01 12:42:42;;;;;;;4.53;1.30;;;;;;;19.09;30.12;99979.59;10308979;28;20471;-70
2021/10/01 12:47:47;;;;;;;2.40;1.20;;;;;;;19.23;30.00;99979.13;10307760;28;20410;-70
2021/10/01 12:53:00;;;;;;;3.67;1.10;;;;;;;19.24;28.38;99975.47;10307860;28;20048;-70
2021/10/01 12:58:02;;;;;;;2.85;1.15;;;;;;;19.14;29.96;99973.81;10307196;28;20430;-70
2021/10/01 13:03:06;;;;;;;3.42;1.25;;;;;;;19.05;30.01;99977.34;10308295;28;20578;-71
2021/10/01 13:08:14;;;;;;;6.95;1.42;;;;;;;19.07;30.12;99962.97;10307215;28;20173;-70
2021/10/01 13:13:18;;;;;;;3.40;1.20;;;;;;;18.96;30.68;99960.47;10307463;28;20057;-71
2021/10/01 13:18:23;;;;;;;3.92;1.10;;;;;;;19.12;31.31;99952.75;10305744;28;20185;-69
2021/10/01 13:23:28;;;;;;;3.10;1.40;;;;;;;19.25;31.54;99947.97;10307400;28;20065;-70
2021/10/01 13:28:31;;;;;;;2.88;1.30;;;;;;;19.21;32.74;99938.66;10321898;28;20529;-69
2021/10/01 13:33:32;;;;;;;2.92;1.27;;;;;;;19.28;32.92;99933.56;10307513;28;20073;-68
2021/10/01 13:38:37;;;;;;;3.88;1.30;;;;;;;19.24;32.83;99916.28;10321171;28;20137;-71
2021/10/01 13:43:40;;;;;;;2.67;1.20;;;;;;;19.27;32.75;99910.69;10306816;28;20058;-68
2021/10/01 13:48:42;;;;;;;3.30;1.23;;;;;;;19.25;33.27;99905.56;10305946;28;20402;-68
2021/10/01 13:53:46;;;;;;;3.88;1.20;;;;;;;19.32;33.05;99896.00;10306791;28;20050;-68
2021/10/01 13:58:47;;;;;;;2.97;1.10;;;;;;;19.14;33.66;99889.00;10304522;28;20349;-69
2021/10/01 14:03:49;;;;;;;3.47;1.30;;;;;;;19.10;33.23;99883.16;10305568;28;20145;-68
2021/10/01 14:08:51;;;;;;;4.97;1.27;;;;;;;19.22;33.83;99866.06;10305786;28;20422;-70
2021/10/01 14:14:13;;;;;;;4.00;1.30;;;;;;;19.04;34.16;99874.94;10305720;28;20053;-70
2021/10/01 14:19:14;;;;;;;7.45;1.33;;;;;;;18.88;33.97;99872.91;10304616;28;20100;-69
2021/10/01 14:24:16;;;;;;;2.70;1.30;;;;;;;18.91;33.52;99872.59;10305141;28;20062;-69
2021/10/01 14:29:18;;;;;;;4.43;1.50;;;;;;;18.91;34.08;99875.25;10305374;28;20047;-69
2021/10/01 14:34:19;;;;;;;4.18;1.70;;;;;;;18.84;34.40;99874.16;10304259;28;20064;-69
2021/10/01 14:39:21;;;;;;;3.65;1.30;;;;;;;18.58;34.38;99865.19;10303944;28;20318;-69
2021/10/01 14:44:23;;;;;;;2.10;1.30;;;;;;;18.80;34.86;99859.53;10305401;28;20061;-69
2021/10/01 14:49:24;;;;;;;4.28;1.58;;;;;;;18.74;35.42;99848.69;10303894;28;20454;-69
2021/10/01 14:54:27;;;;;;;5.28;1.80;;;;;;;18.77;36.05;99838.63;10319398;28;20315;-69
2021/10/01 14:59:29;;;;;;;3.75;1.70;;;;;;;18.76;36.48;99842.28;10303732;28;20054;-68
2021/10/01 15:04:31;;;;;;;7.55;1.55;;;;;;;18.71;36.95;99835.75;10303240;28;20054;-69
2021/10/01 15:09:32;;;;;;;4.70;1.50;;;;;;;18.51;37.12;99834.97;10303225;28;20133;-68
2021/10/01 15:14:34;;;;;;;4.07;1.40;;;;;;;18.37;37.42;99836.25;10302933;28;20410;-68
2021/10/01 15:19:39;;;;;;;3.13;1.50;;;;;;;18.14;38.14;99836.69;10304365;28;20050;-68
2021/10/01 15:24:40;;;;;;;4.20;1.40;;;;;;;17.95;38.05;99829.63;10303761;28;20058;-75
2021/10/01 15:30:07;;;;;;;3.80;1.40;;;;;;;17.73;39.21;99830.72;10302795;28;20046;-74
2021/10/01 15:35:11;;;;;;;2.65;1.58;;;;;;;17.63;38.97;99834.34;10316001;28;20057;-75
2021/10/01 15:40:15;;;;;;;5.82;1.60;;;;;;;17.48;40.01;99833.94;10298587;28;20054;-75
2021/10/01 15:45:18;;;;;;;5.20;1.65;;;;;;;17.42;40.91;99831.00;10300037;28;20054;-75
2021/10/01 15:50:21;;;;;;;4.38;1.63;;;;;;;17.38;41.71;99821.66;10300937;28;20042;-75
2021/10/01 15:55:24;;;;;;;4.60;1.30;;;;;;;17.26;41.58;99828.84;10302492;28;20195;-75
2021/10/01 16:00:26;;;;;;;3.08;1.40;;;;;;;17.08;42.54;99827.00;10298484;28;20054;-76
2021/10/01 16:05:27;;;;;;;2.90;1.40;;;;;;;16.97;42.82;99826.16;10300984;28;20054;-76
2021/10/01 16:10:32;;;;;;;3.75;1.80;;;;;;;16.94;43.03;99826.41;10300842;28;20503;-77
2021/10/01 16:15:35;;;;;;;6.50;1.80;;;;;;;16.86;42.84;99825.41;10300512;28;20145;-76
2021/10/01 16:20:37;;;;;;;4.65;1.77;;;;;;;16.75;43.40;99826.31;10298838;28;20064;-76
2021/10/01 16:25:39;;;;;;;3.25;1.48;;;;;;;16.57;44.75;99829.75;10306949;28;20068;-77
2021/10/01 16:30:43;;;;;;;4.25;1.60;;;;;;;16.41;45.76;99838.09;10308327;28;20046;-76
2021/10/01 16:35:46;;;;;;;5.10;1.40;;;;;;;16.21;46.08;99829.22;10308897;28;20056;-76
2021/10/01 16:40:48;;;;;;;4.78;1.52;;;;;;;16.01;46.78;99826.59;10307987;28;20046;-76
2021/10/01 16:45:49;;;;;;;3.97;1.40;;;;;;;15.78;47.08;99835.56;10305692;28;20408;-76
2021/10/01 16:50:51;;;;;;;4.35;1.60;;;;;;;15.55;47.75;99831.38;10307204;28;20050;-76
2021/10/01 16:55:53;;;;;;;2.65;1.30;;;;;;;15.36;47.62;99829.34;10306887;28;20050;-76
2021/10/01 17:00:54;;;;;;;4.82;1.50;;;;;;;15.17;48.42;99824.72;10318801;28;20085;-77
2021/10/01 17:05:56;;;;;;;2.70;1.25;;;;;;;15.03;48.62;99816.25;10307914;28;20454;-76
2021/10/01 17:10:58;;;;;;;4.90;1.50;;;;;;;14.90;48.89;99818.19;10307289;28;20062;-75
2021/10/01 17:16:00;;;;;;;4.00;1.80;;;;;;;14.83;49.62;99817.84;10306100;28;20221;-76
2021/10/01 17:21:02;;;;;;;5.00;1.65;;;;;;;14.71;50.22;99824.06;10306799;28;20053;-66
2021/10/01 17:26:04;;;;;;;4.70;1.60;;;;;;;14.58;50.42;99834.72;10306239;28;20062;-66
2021/10/01 17:31:06;;;;;;;6.35;2.83;;;;;;;14.48;50.80;99833.72;10306621;28;20498;-66
2021/10/01 17:36:08;;;;;;;4.57;1.98;;;;;;;14.42;51.22;99843.88;10303529;28;20085;-66
2021/10/01 17:41:10;;;;;;;5.10;1.90;;;;;;;14.42;51.73;99841.25;10306997;28;20056;-66
2021/10/01 17:46:12;;;;;;;5.78;2.20;;;;;;;14.33;52.10;99834.06;10305065;28;20509;-66
2021/10/01 17:51:14;;;;;;;5.18;1.95;;;;;;;14.30;52.33;99832.50;10305308;28;20050;-66
2021/10/01 17:56:16;;;;;;;7.55;1.90;;;;;;;14.27;52.47;99827.47;10305085;28;20490;-66
2021/10/01 18:01:18;;;;;;;5.05;1.67;;;;;;;14.23;52.54;99822.56;10304352;28;21350;-66
2021/10/01 18:06:20;;;;;;;5.00;1.80;;;;;;;14.15;52.79;99833.66;10304470;28;20117;-66
2021/10/01 18:11:23;;;;;;;4.38;1.70;;;;;;;14.10;52.97;99827.94;10304002;28;20049;-67
2021/10/01 18:16:25;;;;;;;4.57;1.60;;;;;;;14.03;53.43;99824.06;10304966;28;20196;-66
2021/10/01 18:21:27;;;;;;;3.85;1.50;;;;;;;13.83;53.99;99830.00;10304861;28;20050;-66
2021/10/01 18:26:29;;;;;;;6.90;1.73;;;;;;;13.70;54.13;99821.34;10317958;28;20434;-67
2021/10/01 18:31:30;;;;;;;4.97;1.85;;;;;;;13.56;54.18;99822.38;10303926;28;20042;-67
2021/10/01 18:36:32;;;;;;;4.65;1.70;;;;;;;13.51;54.59;99823.66;10304117;28;20081;-67
2021/10/01 18:41:35;;;;;;;6.50;1.60;;;;;;;13.45;54.63;99818.88;10302478;28;20054;-67
2021/10/01 18:46:37;;;;;;;3.30;1.50;;;;;;;13.43;54.78;99821.56;10303249;28;20148;-67
2021/10/01 18:51:38;;;;;;;4.88;1.75;;;;;;;13.43;55.08;99816.31;10304431;28;20054;-67
2021/10/01 18:56:40;;;;;;;4.68;2.08;;;;;;;13.40;55.23;99813.91;10303893;28;20364;-66
2021/10/01 19:01:42;;;;;;;5.72;2.50;;;;;;;13.31;55.51;99811.94;10304322;28;20287;-67
2021/10/01 19:06:43;;;;;;;4.55;3.00;;;;;;;13.21;55.89;99807.47;10303409;28;20148;-67
2021/10/01 19:11:45;;;;;;;4.38;2.20;;;;;;;13.09;56.45;99817.06;10304040;28;20058;-67
2021/10/01 19:16:47;;;;;;;5.80;2.30;;;;;;;12.98;56.67;99817.00;10303028;28;20508;-67
2021/10/01 19:21:51;;;;;;;6.43;3.03;;;;;;;12.86;56.91;99816.06;10302078;28;20418;-67
2021/10/01 19:27:18;;;;;;;5.65;2.40;;;;;;;12.73;57.32;99817.91;10303722;28;20056;-67
2021/10/01 19:32:24;;;;;;;7.20;2.65;;;;;;;12.71;57.68;99818.94;10301617;28;20050;-67
2021/10/01 19:37:26;;;;;;;4.80;2.30;;;;;;;12.73;57.73;99824.94;10303338;28;20053;-67
2021/10/01 19:42:31;;;;;;;5.55;2.45;;;;;;;12.76;57.75;99825.53;10302511;28;20046;-67
2021/10/01 19:47:34;;;;;;;8.15;4.18;;;;;;;12.74;57.60;99827.44;10301868;28;20494;-67
2021/10/01 19:52:38;;;;;;;8.68;3.10;;;;;;;12.75;57.87;99818.63;10302138;28;20062;-67
2021/10/01 19:57:41;;;;;;;4.57;2.50;;;;;;;12.77;57.97;99819.38;10302898;28;20104;-67
2021/10/01 20:02:47;;;;;;;6.82;3.25;;;;;;;12.75;57.87;99808.13;10309200;28;20517;-67
2021/10/01 20:07:51;;;;;;;4.07;2.47;;;;;;;12.68;57.84;99806.88;10309435;28;20137;-67
2021/10/01 20:12:53;;;;;;;5.70;2.45;;;;;;;12.58;58.46;99811.09;10310110;28;20650;-67
2021/10/01 20:17:58;;;;;;;3.88;2.33;;;;;;;12.60;58.33;99803.94;10309520;28;20077;-67
2021/10/01 20:23:06;;;;;;;4.30;2.38;;;;;;;12.51;58.51;99807.25;10308752;28;20141;-67
2021/10/01 20:49:15;;;;;;;5.13;3.20;;;;;;;12.09;59.21;99810.13;10307245;28;20050;-67
2021/10/01 20:54:19;;;;;;;6.95;4.55;;;;;;;12.06;59.38;99812.97;10307908;28;20054;-67
2021/10/01 20:59:31;;;;;;;9.20;3.90;;;;;;;12.05;59.50;99820.00;10306814;28;20532;-67
2021/10/01 21:41:41;;;;;;;7.07;3.42;;;;;;;11.91;59.61;99819.22;10306627;28;20062;-66
2021/10/01 21:51:47;;;;;;;5.75;2.80;;;;;;;11.93;59.55;99812.09;10303462;28;20046;-67
2021/10/01 21:56:50;;;;;;;6.35;2.60;;;;;;;11.97;59.60;99808.34;10296310;28;20049;-67
2021/10/01 22:01:52;;;;;;;5.28;2.90;;;;;;;11.99;59.31;99802.06;10300032;28;20058;-67
2021/10/01 22:23:02;;;;;;;6.10;2.38;;;;;;;11.76;59.64;99794.06;10301846;28;20411;-66
2021/10/01 22:28:05;;;;;;;6.43;2.80;;;;;;;11.84;59.73;99795.25;10302708;28;20050;-66
2021/10/01 22:33:07;;;;;;;7.28;2.95;;;;;;;11.88;59.71;99794.09;10302486;28;20069;-66
2021/10/01 22:38:13;;;;;;;5.00;3.00;;;;;;;11.95;59.41;99784.00;10302811;28;20050;-66
2021/10/01 22:43:20;;;;;;;5.20;2.90;;;;;;;11.84;59.89;99782.13;10316915;28;20530;-68
2021/10/01 22:48:22;;;;;;;6.35;2.67;;;;;;;11.72;59.89;99784.75;10302783;28;20054;-68
2021/10/01 22:53:26;;;;;;;6.40;2.80;;;;;;;11.74;60.01;99773.22;10301529;28;20411;-68
2021/10/01 22:58:28;;;;;;;9.23;3.22;;;;;;;11.83;59.86;99774.34;10301044;28;20057;-68
2021/10/01 23:03:34;;;;;;;5.82;3.10;;;;;;;11.93;59.87;99775.41;10302418;28;20046;-68
2021/10/01 23:08:35;;;;;;;6.30;3.20;;;;;;;11.97;59.48;99776.88;10302061;28;20072;-68
2021/10/01 23:13:49;;;;;;;5.18;2.70;;;;;;;11.95;59.47;99774.38;10301622;28;20054;-67
